createdAt,value
2018-03-25T00:00:18.171Z,24.20
2018-03-25T00:01:18.190Z,24.80
2018-03-25T00:02:18.218Z,25.40
2018-03-25T00:03:18.227Z,24.50
2018-03-25T00:04:18.248Z,24.60
2018-03-25T00:05:18.273Z,24.00
2018-03-25T00:06:18.285Z,24.00
2018-03-25T00:07:18.306Z,24.00
2018-03-25T00:08:18.326Z,24.70
2018-03-25T00:09:18.342Z,24.80
2018-03-25T00:10:18.364Z,24.00
2018-03-25T00:11:18.381Z,24.00
2018-03-25T00:12:18.402Z,24.60
2018-03-25T00:13:18.458Z,24.00
2018-03-25T00:14:18.436Z,24.00
2018-03-25T00:15:18.458Z,24.00
2018-03-25T00:16:18.473Z,22.60
2018-03-25T00:17:18.497Z,24.20
2018-03-25T00:18:18.509Z,23.80
2018-03-25T00:19:18.531Z,24.50
2018-03-25T00:20:18.552Z,24.60
2018-03-25T00:21:18.564Z,24.80
2018-03-25T00:22:18.610Z,23.00
2018-03-25T00:23:18.609Z,24.30
2018-03-25T00:24:18.632Z,23.60
2018-03-25T00:25:18.646Z,23.00
2018-03-25T00:26:18.663Z,23.10
2018-03-25T00:27:18.679Z,24.20
2018-03-25T00:28:18.704Z,22.60
2018-03-25T00:29:18.717Z,22.50
2018-03-25T00:30:18.743Z,23.50
2018-03-25T00:31:18.763Z,24.10
2018-03-25T00:32:18.771Z,23.40
2018-03-25T00:33:18.814Z,23.20
2018-03-25T00:34:18.812Z,23.30
2018-03-25T00:35:18.828Z,23.10
2018-03-25T00:36:18.855Z,23.20
2018-03-25T00:37:18.868Z,23.60
2018-03-25T00:38:18.889Z,23.00
2018-03-25T00:39:18.913Z,24.20
2018-03-25T00:40:18.920Z,24.60
2018-03-25T00:41:18.948Z,23.80
2018-03-25T00:42:18.998Z,23.70
2018-03-25T00:43:18.981Z,24.20
2018-03-25T00:44:19.002Z,23.60
2018-03-25T00:45:19.024Z,23.80
2018-03-25T00:46:19.042Z,23.00
2018-03-25T00:47:19.060Z,23.50
2018-03-25T00:48:19.077Z,24.20
2018-03-25T00:49:19.092Z,24.60
2018-03-25T00:50:19.117Z,23.40
2018-03-25T00:51:19.131Z,22.10
2018-03-25T00:52:19.153Z,22.10
2018-03-25T00:53:19.172Z,23.80
2018-03-25T00:54:19.184Z,23.30
2018-03-25T00:55:19.208Z,23.60
2018-03-25T00:56:19.220Z,22.60
2018-03-25T00:57:19.248Z,23.50
2018-03-25T00:58:19.261Z,22.60
2018-03-25T00:59:19.280Z,23.20
2018-03-25T01:00:19.300Z,23.70
2018-03-25T01:01:19.315Z,22.50
2018-03-25T01:02:19.336Z,23.10
2018-03-25T01:03:19.352Z,23.60
2018-03-25T01:04:19.372Z,23.20
2018-03-25T01:05:19.392Z,22.70
2018-03-25T01:06:19.412Z,22.40
2018-03-25T01:07:19.428Z,23.20
2018-03-25T01:08:19.451Z,23.90
2018-03-25T01:09:19.468Z,23.20
2018-03-25T01:10:19.485Z,23.60
2018-03-25T01:11:19.506Z,23.60
2018-03-25T01:12:19.522Z,23.00
2018-03-25T01:13:19.537Z,23.00
2018-03-25T01:14:19.566Z,23.30
2018-03-25T01:15:19.576Z,22.50
2018-03-25T01:16:19.602Z,22.60
2018-03-25T01:17:19.626Z,22.50
2018-03-25T01:18:19.637Z,22.10
2018-03-25T01:19:19.655Z,23.20
2018-03-25T01:20:19.669Z,22.00
2018-03-25T01:21:19.689Z,23.60
2018-03-25T01:22:19.712Z,22.60
2018-03-25T01:23:19.728Z,22.60
2018-03-25T01:24:19.749Z,24.30
2018-03-25T01:25:19.767Z,22.60
2018-03-25T01:26:19.784Z,23.50
2018-03-25T01:27:19.810Z,23.00
2018-03-25T01:28:19.821Z,22.90
2018-03-25T01:29:19.841Z,23.40
2018-03-25T01:30:19.858Z,22.20
2018-03-25T01:31:19.880Z,23.00
2018-03-25T01:32:19.895Z,23.60
2018-03-25T01:33:19.912Z,24.70
2018-03-25T01:34:19.937Z,23.60
2018-03-25T01:35:19.951Z,22.70
2018-03-25T01:36:19.971Z,24.30
2018-03-25T01:37:19.990Z,23.30
2018-03-25T01:38:20.007Z,24.00
2018-03-25T01:39:20.030Z,24.10
2018-03-25T01:40:20.044Z,23.90
2018-03-25T01:41:20.062Z,23.60
2018-03-25T01:42:20.084Z,24.20
2018-03-25T01:43:20.099Z,22.70
2018-03-25T01:44:20.122Z,23.60
2018-03-25T01:45:20.136Z,23.20
2018-03-25T01:46:20.160Z,23.90
2018-03-25T01:47:20.180Z,24.40
2018-03-25T01:48:20.189Z,23.30
2018-03-25T01:49:20.213Z,23.20
2018-03-25T01:50:20.230Z,24.80
2018-03-25T01:51:20.246Z,24.50
2018-03-25T01:52:20.272Z,23.70
2018-03-25T01:53:20.284Z,23.90
2018-03-25T01:54:20.306Z,23.50
2018-03-25T01:55:20.331Z,24.60
2018-03-25T01:56:20.336Z,24.30
2018-03-25T01:57:20.361Z,24.30
2018-03-25T01:58:20.377Z,25.40
2018-03-25T01:59:20.397Z,24.20
2018-03-25T02:00:20.420Z,24.30
2018-03-25T02:01:20.435Z,24.50
2018-03-25T02:02:20.451Z,24.50
2018-03-25T02:03:20.474Z,25.50
2018-03-25T02:04:20.496Z,25.10
2018-03-25T02:05:20.508Z,24.20
2018-03-25T02:06:20.523Z,24.70
2018-03-25T02:07:20.552Z,23.90
2018-03-25T02:08:20.565Z,23.80
2018-03-25T02:09:20.579Z,24.00
2018-03-25T02:10:20.602Z,25.30
2018-03-25T02:11:20.622Z,24.90
2018-03-25T02:12:20.637Z,25.60
2018-03-25T02:13:20.662Z,24.20
2018-03-25T02:14:20.672Z,24.60
2018-03-25T02:15:20.693Z,25.10
2018-03-25T02:16:20.721Z,26.70
2018-03-25T02:17:20.734Z,25.50
2018-03-25T02:18:20.751Z,25.60
2018-03-25T02:19:20.773Z,25.50
2018-03-25T02:20:20.782Z,25.70
2018-03-25T02:21:20.806Z,25.50
2018-03-25T02:22:20.826Z,26.40
2018-03-25T02:23:20.844Z,27.20
2018-03-25T02:24:20.863Z,26.00
2018-03-25T02:25:20.877Z,26.70
2018-03-25T02:26:20.899Z,26.70
2018-03-25T02:27:20.914Z,24.70
2018-03-25T02:28:20.935Z,25.30
2018-03-25T02:29:20.953Z,26.10
2018-03-25T02:30:20.970Z,25.80
2018-03-25T02:31:20.989Z,27.20
2018-03-25T02:32:21.005Z,26.00
2018-03-25T02:33:21.022Z,25.10
2018-03-25T02:34:21.048Z,25.50
2018-03-25T02:35:21.064Z,26.40
2018-03-25T02:36:21.078Z,25.50
2018-03-25T02:37:21.102Z,24.20
2018-03-25T02:38:21.114Z,25.10
2018-03-25T02:39:21.145Z,24.80
2018-03-25T02:40:21.152Z,23.50
2018-03-25T02:41:21.173Z,24.60
2018-03-25T02:42:21.188Z,24.90
2018-03-25T02:43:21.210Z,25.00
2018-03-25T02:44:21.225Z,25.30
2018-03-25T02:45:21.249Z,24.90
2018-03-25T02:46:21.266Z,24.20
2018-03-25T02:47:21.281Z,23.40
2018-03-25T02:48:21.305Z,24.30
2018-03-25T02:49:21.323Z,23.60
2018-03-25T02:50:21.337Z,24.70
2018-03-25T02:51:21.352Z,25.10
2018-03-25T02:52:21.374Z,24.20
2018-03-25T02:53:21.387Z,23.90
2018-03-25T02:54:21.414Z,24.20
2018-03-25T02:55:21.424Z,23.90
2018-03-25T02:56:21.449Z,22.50
2018-03-25T02:57:21.466Z,24.20
2018-03-25T02:58:21.498Z,23.90
2018-03-25T02:59:21.504Z,23.90
2018-03-25T03:00:21.514Z,26.10
2018-03-25T03:01:21.544Z,24.90
2018-03-25T03:02:21.554Z,25.20
2018-03-25T03:03:21.569Z,24.50
2018-03-25T03:04:21.596Z,25.00
2018-03-25T03:05:21.605Z,25.20
2018-03-25T03:06:21.633Z,24.80
2018-03-25T03:07:21.649Z,25.00
2018-03-25T03:08:21.663Z,26.00
2018-03-25T03:09:21.684Z,25.30
2018-03-25T03:10:21.702Z,25.30
2018-03-25T03:11:21.717Z,27.30
2018-03-25T03:12:21.732Z,25.50
2018-03-25T03:13:21.754Z,24.50
2018-03-25T03:14:21.787Z,26.70
2018-03-25T03:15:21.792Z,25.50
2018-03-25T03:16:21.809Z,26.00
2018-03-25T03:17:21.831Z,25.90
2018-03-25T03:18:21.841Z,24.00
2018-03-25T03:19:21.864Z,25.80
2018-03-25T03:20:21.883Z,24.40
2018-03-25T03:21:21.898Z,25.10
2018-03-25T03:22:21.914Z,24.90
2018-03-25T03:23:21.941Z,25.30
2018-03-25T03:24:21.951Z,26.10
2018-03-25T03:25:21.969Z,25.10
2018-03-25T03:26:21.999Z,23.50
2018-03-25T03:27:22.006Z,24.60
2018-03-25T03:28:22.026Z,25.80
2018-03-25T03:29:22.045Z,25.50
2018-03-25T03:30:22.117Z,24.50
2018-03-25T03:31:22.083Z,25.10
2018-03-25T03:32:22.103Z,24.60
2018-03-25T03:33:22.120Z,25.20
2018-03-25T03:34:22.136Z,24.70
2018-03-25T03:35:22.158Z,25.10
2018-03-25T03:36:22.176Z,24.20
2018-03-25T03:37:22.194Z,24.20
2018-03-25T03:38:22.216Z,23.90
2018-03-25T03:39:22.226Z,23.60
2018-03-25T03:40:22.251Z,23.60
2018-03-25T03:41:22.269Z,24.40
2018-03-25T03:42:22.278Z,24.50
2018-03-25T03:43:22.301Z,26.00
2018-03-25T03:44:22.363Z,25.80
2018-03-25T03:45:22.337Z,23.60
2018-03-25T03:46:22.361Z,24.50
2018-03-25T03:47:22.371Z,25.90
2018-03-25T03:48:22.397Z,26.30
2018-03-25T03:49:22.417Z,25.90
2018-03-25T03:50:22.426Z,26.40
2018-03-25T03:51:22.452Z,25.40
2018-03-25T03:52:22.462Z,25.30
2018-03-25T03:53:22.483Z,24.20
2018-03-25T03:54:22.499Z,23.70
2018-03-25T03:55:22.520Z,23.60
2018-03-25T03:56:22.541Z,24.20
2018-03-25T03:57:22.554Z,24.40
2018-03-25T03:58:22.581Z,23.50
2018-03-25T03:59:22.590Z,24.90
2018-03-25T04:00:22.612Z,26.60
2018-03-25T04:01:22.630Z,25.30
2018-03-25T04:02:22.650Z,25.40
2018-03-25T04:03:22.666Z,24.50
2018-03-25T04:04:22.687Z,24.70
2018-03-25T04:05:22.705Z,24.90
2018-03-25T04:06:22.720Z,25.10
2018-03-25T04:07:22.742Z,26.10
2018-03-25T04:08:22.756Z,25.60
2018-03-25T04:09:22.778Z,25.20
2018-03-25T04:10:22.794Z,26.30
2018-03-25T04:11:22.815Z,24.70
2018-03-25T04:12:22.835Z,26.70
2018-03-25T04:13:22.848Z,25.40
2018-03-25T04:14:22.865Z,24.60
2018-03-25T04:15:22.885Z,25.70
2018-03-25T04:16:22.905Z,27.30
2018-03-25T04:17:22.924Z,27.40
2018-03-25T04:18:22.949Z,27.40
2018-03-25T04:19:22.957Z,25.70
2018-03-25T04:20:22.981Z,26.30
2018-03-25T04:21:22.993Z,25.50
2018-03-25T04:22:23.015Z,26.10
2018-03-25T04:23:23.037Z,25.60
2018-03-25T04:24:23.045Z,27.30
2018-03-25T04:25:23.067Z,25.30
2018-03-25T04:26:23.087Z,26.80
2018-03-25T04:27:23.118Z,26.30
2018-03-25T04:28:23.134Z,26.10
2018-03-25T04:29:23.142Z,25.30
2018-03-25T04:30:23.170Z,26.00
2018-03-25T04:31:23.180Z,24.30
2018-03-25T04:32:23.202Z,25.20
2018-03-25T04:33:23.212Z,25.10
2018-03-25T04:34:23.235Z,25.20
2018-03-25T04:35:23.250Z,25.70
2018-03-25T04:36:23.271Z,26.80
2018-03-25T04:37:23.294Z,25.90
2018-03-25T04:38:23.308Z,24.40
2018-03-25T04:39:23.324Z,25.60
2018-03-25T04:40:23.339Z,25.50
2018-03-25T04:41:23.356Z,25.60
2018-03-25T04:42:23.378Z,26.30
2018-03-25T04:43:23.394Z,27.30
2018-03-25T04:44:23.417Z,25.70
2018-03-25T04:45:23.431Z,24.50
2018-03-25T04:46:23.452Z,26.70
2018-03-25T04:47:23.508Z,27.00
2018-03-25T04:48:23.487Z,27.50
2018-03-25T04:49:23.506Z,26.80
2018-03-25T04:50:23.527Z,25.70
2018-03-25T04:51:23.541Z,27.20
2018-03-25T04:52:23.565Z,26.70
2018-03-25T04:53:23.582Z,27.10
2018-03-25T04:54:23.594Z,25.80
2018-03-25T04:55:23.619Z,28.00
2018-03-25T04:56:23.628Z,26.20
2018-03-25T04:57:23.649Z,26.80
2018-03-25T04:58:23.665Z,27.70
2018-03-25T04:59:23.686Z,27.80
2018-03-25T05:00:23.706Z,27.80
2018-03-25T05:01:23.720Z,26.70
2018-03-25T05:02:23.747Z,26.80
2018-03-25T05:03:23.763Z,26.80
2018-03-25T05:04:23.782Z,26.90
2018-03-25T05:05:23.795Z,26.90
2018-03-25T05:06:23.816Z,27.10
2018-03-25T05:07:23.832Z,28.10
2018-03-25T05:08:23.853Z,26.60
2018-03-25T05:09:23.871Z,27.10
2018-03-25T05:10:23.886Z,28.10
2018-03-25T05:11:23.909Z,28.10
2018-03-25T05:12:23.923Z,27.90
2018-03-25T05:13:23.939Z,27.50
2018-03-25T05:14:23.967Z,27.30
2018-03-25T05:15:23.976Z,28.10
2018-03-25T05:16:24.002Z,29.20
2018-03-25T05:17:24.021Z,27.00
2018-03-25T05:18:24.037Z,28.30
2018-03-25T05:19:24.056Z,27.10
2018-03-25T05:20:24.072Z,28.30
2018-03-25T05:21:24.090Z,28.80
2018-03-25T05:22:24.106Z,27.30
2018-03-25T05:23:24.122Z,28.40
2018-03-25T05:24:24.148Z,28.20
2018-03-25T05:25:24.161Z,27.70
2018-03-25T05:26:24.182Z,27.90
2018-03-25T05:27:24.204Z,27.80
2018-03-25T05:28:24.218Z,26.90
2018-03-25T05:29:24.241Z,28.40
2018-03-25T05:30:24.256Z,28.10
2018-03-25T05:31:24.271Z,28.50
2018-03-25T05:32:24.292Z,27.90
2018-03-25T05:33:24.311Z,27.70
2018-03-25T05:34:24.326Z,28.30
2018-03-25T05:35:24.348Z,28.80
2018-03-25T05:36:24.367Z,29.20
2018-03-25T05:37:24.386Z,28.80
2018-03-25T05:38:24.398Z,28.70
2018-03-25T05:39:24.419Z,28.80
2018-03-25T05:40:24.440Z,28.20
2018-03-25T05:41:24.453Z,29.50
2018-03-25T05:42:24.478Z,28.80
2018-03-25T05:43:24.495Z,28.00
2018-03-25T05:44:24.511Z,26.80
2018-03-25T05:45:24.526Z,27.90
2018-03-25T05:46:24.553Z,27.70
2018-03-25T05:47:24.563Z,27.80
2018-03-25T05:48:24.583Z,28.70
2018-03-25T05:49:24.602Z,30.00
2018-03-25T05:50:24.619Z,29.10
2018-03-25T05:51:24.639Z,28.30
2018-03-25T05:52:24.661Z,28.00
2018-03-25T05:53:24.678Z,29.70
2018-03-25T05:54:24.696Z,30.20
2018-03-25T05:55:24.717Z,30.40
2018-03-25T05:56:24.730Z,29.70
2018-03-25T05:57:24.752Z,28.60
2018-03-25T05:58:24.771Z,28.30
2018-03-25T05:59:24.788Z,29.50
2018-03-25T06:00:24.808Z,30.10
2018-03-25T06:01:24.829Z,29.30
2018-03-25T06:02:24.840Z,29.20
2018-03-25T06:03:24.868Z,29.10
2018-03-25T06:04:24.882Z,29.20
2018-03-25T06:05:24.902Z,29.20
2018-03-25T06:06:24.922Z,29.50
2018-03-25T06:07:24.941Z,29.00
2018-03-25T06:08:24.955Z,31.70
2018-03-25T06:09:24.972Z,28.70
2018-03-25T06:10:24.993Z,30.70
2018-03-25T06:11:25.018Z,30.90
2018-03-25T06:12:25.030Z,30.80
2018-03-25T06:13:25.056Z,31.90
2018-03-25T06:14:25.142Z,29.30
2018-03-25T06:15:25.087Z,32.60
2018-03-25T06:16:25.103Z,32.10
2018-03-25T06:17:25.123Z,30.70
2018-03-25T06:18:25.140Z,30.40
2018-03-25T06:19:25.157Z,32.50
2018-03-25T06:20:25.183Z,30.30
2018-03-25T06:21:25.201Z,31.00
2018-03-25T06:22:25.217Z,32.00
2018-03-25T06:23:25.242Z,29.70
2018-03-25T06:24:25.253Z,30.30
2018-03-25T06:25:25.272Z,29.80
2018-03-25T06:26:25.288Z,32.40
2018-03-25T06:27:25.305Z,31.00
2018-03-25T06:28:25.331Z,29.70
2018-03-25T06:29:25.345Z,29.60
2018-03-25T06:30:25.366Z,31.50
2018-03-25T06:31:25.387Z,30.50
2018-03-25T06:32:25.398Z,32.30
2018-03-25T06:33:25.419Z,32.30
2018-03-25T06:34:25.473Z,30.80
2018-03-25T06:35:25.463Z,30.60
2018-03-25T06:36:25.477Z,34.00
2018-03-25T06:37:25.491Z,32.00
2018-03-25T06:38:25.511Z,34.30
2018-03-25T06:39:25.536Z,32.70
2018-03-25T06:40:25.549Z,32.80
2018-03-25T06:41:25.568Z,32.50
2018-03-25T06:42:25.590Z,32.70
2018-03-25T06:43:25.610Z,30.70
2018-03-25T06:44:25.647Z,31.70
2018-03-25T06:45:25.646Z,32.00
2018-03-25T06:46:25.667Z,31.20
2018-03-25T06:47:25.677Z,29.90
2018-03-25T06:48:25.705Z,31.50
2018-03-25T06:49:25.720Z,30.20
2018-03-25T06:50:25.743Z,30.90
2018-03-25T06:51:25.753Z,31.20
2018-03-25T06:52:25.773Z,32.10
2018-03-25T06:53:25.795Z,29.90
2018-03-25T06:54:25.810Z,30.50
2018-03-25T06:55:25.832Z,30.70
2018-03-25T06:56:25.852Z,29.60
2018-03-25T06:57:25.871Z,31.10
2018-03-25T06:58:25.887Z,30.10
2018-03-25T06:59:25.904Z,32.20
2018-03-25T07:00:25.930Z,29.70
2018-03-25T07:01:25.944Z,30.20
2018-03-25T07:02:25.969Z,30.00
2018-03-25T07:03:25.987Z,30.60
2018-03-25T07:04:25.999Z,30.60
2018-03-25T07:05:26.025Z,31.60
2018-03-25T07:06:26.037Z,31.40
2018-03-25T07:07:26.063Z,30.90
2018-03-25T07:08:26.079Z,32.70
2018-03-25T07:09:26.102Z,32.10
2018-03-25T07:10:26.120Z,31.10
2018-03-25T07:11:26.137Z,30.60
2018-03-25T07:12:26.151Z,31.10
2018-03-25T07:13:26.177Z,30.00
2018-03-25T07:14:26.218Z,30.70
2018-03-25T07:15:26.216Z,30.40
2018-03-25T07:16:26.225Z,31.40
2018-03-25T07:17:26.256Z,29.60
2018-03-25T07:18:26.272Z,29.50
2018-03-25T07:19:26.285Z,30.30
2018-03-25T07:20:26.310Z,30.60
2018-03-25T07:21:26.356Z,31.00
2018-03-25T07:22:26.346Z,29.40
2018-03-25T07:23:26.360Z,29.50
2018-03-25T07:24:26.390Z,30.20
2018-03-25T07:25:26.406Z,30.90
2018-03-25T07:26:26.417Z,30.70
2018-03-25T07:27:26.445Z,30.00
2018-03-25T07:28:26.460Z,30.10
2018-03-25T07:29:26.474Z,30.70
2018-03-25T07:30:26.502Z,30.90
2018-03-25T07:31:26.514Z,30.10
2018-03-25T07:32:26.541Z,30.80
2018-03-25T07:33:26.560Z,31.30
2018-03-25T07:34:26.571Z,30.90
2018-03-25T07:35:26.599Z,31.10
2018-03-25T07:36:26.609Z,30.30
2018-03-25T07:37:26.632Z,30.20
2018-03-25T07:38:26.658Z,31.90
2018-03-25T07:39:26.675Z,29.40
2018-03-25T07:40:26.685Z,31.30
2018-03-25T07:41:26.728Z,31.00
2018-03-25T07:42:26.745Z,32.20
2018-03-25T07:43:26.746Z,30.80
2018-03-25T07:44:26.765Z,29.00
2018-03-25T07:45:26.786Z,29.30
2018-03-25T07:46:26.813Z,29.80
2018-03-25T07:47:26.842Z,29.30
2018-03-25T07:48:26.842Z,29.90
2018-03-25T07:49:26.867Z,30.70
2018-03-25T07:50:26.959Z,30.30
2018-03-25T07:51:26.904Z,31.00
2018-03-25T07:52:26.939Z,31.70
2018-03-25T07:53:26.939Z,30.20
2018-03-25T07:54:26.968Z,31.10
2018-03-25T07:55:26.986Z,30.90
2018-03-25T07:56:27.007Z,31.20
2018-03-25T07:57:27.027Z,30.10
2018-03-25T07:58:27.044Z,30.70
2018-03-25T07:59:27.068Z,30.90
2018-03-25T08:00:27.128Z,30.30
2018-03-25T08:01:27.104Z,30.80
2018-03-25T08:02:27.121Z,29.40
2018-03-25T08:03:27.144Z,30.40
2018-03-25T08:04:27.161Z,29.50
2018-03-25T08:05:27.209Z,30.40
2018-03-25T08:06:27.202Z,29.40
2018-03-25T08:07:27.219Z,31.70
2018-03-25T08:08:27.240Z,31.30
2018-03-25T08:09:27.264Z,30.10
2018-03-25T08:10:27.276Z,31.40
2018-03-25T08:11:27.299Z,30.50
2018-03-25T08:12:27.315Z,30.90
2018-03-25T08:13:27.336Z,30.50
2018-03-25T08:14:27.358Z,30.60
2018-03-25T08:15:27.376Z,29.40
2018-03-25T08:16:27.404Z,30.10
2018-03-25T08:17:27.416Z,30.20
2018-03-25T08:18:27.463Z,30.40
2018-03-25T08:19:27.464Z,30.00
2018-03-25T08:20:27.475Z,29.50
2018-03-25T08:21:27.506Z,30.20
2018-03-25T08:22:27.519Z,28.80
2018-03-25T08:23:27.536Z,29.70
2018-03-25T08:24:27.563Z,30.50
2018-03-25T08:25:27.576Z,30.50
2018-03-25T08:26:27.604Z,29.60
2018-03-25T08:27:27.616Z,30.10
2018-03-25T08:28:27.644Z,29.70
2018-03-25T08:29:27.660Z,30.50
2018-03-25T08:30:27.682Z,30.80
2018-03-25T08:31:27.708Z,29.60
2018-03-25T08:32:27.716Z,29.70
2018-03-25T08:33:27.743Z,30.00
2018-03-25T08:34:27.760Z,30.40
2018-03-25T08:35:27.778Z,30.10
2018-03-25T08:36:27.806Z,30.70
2018-03-25T08:37:27.821Z,28.80
2018-03-25T08:38:27.844Z,29.10
2018-03-25T08:39:27.866Z,29.50
2018-03-25T08:40:27.891Z,29.60
2018-03-25T08:41:27.902Z,30.20
2018-03-25T08:42:27.924Z,28.10
2018-03-25T08:43:27.948Z,28.30
2018-03-25T08:44:27.959Z,29.80
2018-03-25T08:45:27.979Z,29.60
2018-03-25T08:46:28.008Z,30.70
2018-03-25T08:47:28.021Z,30.20
2018-03-25T08:48:28.049Z,30.40
2018-03-25T08:49:28.069Z,29.90
2018-03-25T08:50:28.081Z,29.70
2018-03-25T08:51:28.104Z,30.30
2018-03-25T08:52:28.128Z,29.00
2018-03-25T08:53:28.143Z,30.00
2018-03-25T08:54:28.172Z,29.00
2018-03-25T08:55:28.190Z,29.90
2018-03-25T08:56:28.206Z,29.30
2018-03-25T08:57:28.230Z,30.10
2018-03-25T08:58:28.248Z,29.90
2018-03-25T08:59:28.272Z,28.90
2018-03-25T09:00:28.293Z,30.30
2018-03-25T09:01:28.313Z,30.10
2018-03-25T09:02:28.333Z,30.10
2018-03-25T09:03:28.356Z,29.40
2018-03-25T09:04:28.368Z,29.20
2018-03-25T09:05:28.390Z,30.80
2018-03-25T09:06:28.422Z,30.50
2018-03-25T09:07:28.436Z,29.80
2018-03-25T09:08:28.455Z,30.60
2018-03-25T09:09:28.480Z,29.20
2018-03-25T09:10:28.492Z,30.30
2018-03-25T09:11:28.516Z,28.70
2018-03-25T09:12:28.539Z,29.30
2018-03-25T09:13:28.557Z,29.60
2018-03-25T09:14:28.581Z,29.20
2018-03-25T09:15:28.599Z,30.10
2018-03-25T09:16:28.616Z,29.10
2018-03-25T09:17:28.670Z,29.00
2018-03-25T09:18:28.664Z,30.20
2018-03-25T09:19:28.691Z,30.00
2018-03-25T09:20:28.709Z,30.70
2018-03-25T09:21:28.736Z,30.30
2018-03-25T09:22:28.746Z,30.20
2018-03-25T09:23:28.769Z,32.30
2018-03-25T09:24:28.789Z,31.40
2018-03-25T09:25:28.806Z,31.90
2018-03-25T09:26:28.835Z,30.50
2018-03-25T09:27:28.854Z,32.10
2018-03-25T09:28:28.872Z,31.00
2018-03-25T09:29:28.895Z,30.70
2018-03-25T09:30:28.914Z,31.90
2018-03-25T09:31:28.933Z,31.50
2018-03-25T09:32:28.962Z,32.90
2018-03-25T09:33:28.977Z,31.60
2018-03-25T09:34:29.002Z,31.90
2018-03-25T09:35:29.030Z,33.50
2018-03-25T09:36:29.040Z,33.70
2018-03-25T09:37:29.066Z,33.40
2018-03-25T09:38:29.085Z,33.50
2018-03-25T09:39:29.108Z,33.70
2018-03-25T09:40:29.126Z,33.60
2018-03-25T09:41:29.152Z,36.20
2018-03-25T09:42:29.173Z,35.40
2018-03-25T09:43:29.192Z,34.80
2018-03-25T09:44:29.216Z,35.30
2018-03-25T09:45:29.251Z,37.20
2018-03-25T09:46:29.257Z,36.90
2018-03-25T09:47:29.284Z,35.70
2018-03-25T09:48:29.297Z,35.70
2018-03-25T09:49:29.319Z,35.20
2018-03-25T09:50:29.348Z,35.80
2018-03-25T09:51:29.363Z,35.90
2018-03-25T09:52:29.392Z,35.50
2018-03-25T09:53:29.410Z,35.20
2018-03-25T09:54:29.429Z,35.20
2018-03-25T09:55:29.462Z,33.80
2018-03-25T09:56:29.473Z,34.60
2018-03-25T09:57:29.495Z,34.50
2018-03-25T09:58:29.523Z,34.70
2018-03-25T09:59:29.539Z,33.90
2018-03-25T10:00:29.562Z,34.70
2018-03-25T10:01:29.588Z,34.10
2018-03-25T10:02:29.602Z,33.80
2018-03-25T10:03:29.626Z,33.90
2018-03-25T10:04:29.648Z,34.70
2018-03-25T10:05:29.678Z,33.70
2018-03-25T10:06:29.701Z,34.30
2018-03-25T10:07:29.711Z,33.60
2018-03-25T10:08:29.740Z,35.40
2018-03-25T10:09:29.757Z,34.10
2018-03-25T10:10:29.783Z,35.80
2018-03-25T10:11:29.856Z,34.70
2018-03-25T10:12:29.826Z,34.90
2018-03-25T10:13:29.847Z,34.60
2018-03-25T10:14:29.872Z,35.20
2018-03-25T10:15:29.893Z,35.40
2018-03-25T10:16:29.912Z,36.40
2018-03-25T10:17:29.931Z,36.10
2018-03-25T10:18:29.962Z,37.80
2018-03-25T10:19:29.982Z,34.90
2018-03-25T10:20:30.005Z,35.50
2018-03-25T10:21:30.023Z,35.10
2018-03-25T10:22:30.042Z,37.10
2018-03-25T10:23:30.073Z,38.20
2018-03-25T10:24:30.090Z,36.40
2018-03-25T10:25:30.110Z,37.80
2018-03-25T10:26:30.141Z,35.80
2018-03-25T10:27:30.165Z,36.70
2018-03-25T10:28:30.182Z,36.00
2018-03-25T10:29:30.212Z,35.70
2018-03-25T10:30:30.226Z,36.90
2018-03-25T10:31:30.252Z,36.20
2018-03-25T10:32:30.277Z,35.60
2018-03-25T10:33:30.311Z,34.70
2018-03-25T10:34:30.324Z,36.60
2018-03-25T10:35:30.348Z,35.40
2018-03-25T10:36:30.373Z,36.70
2018-03-25T10:37:30.392Z,36.00
2018-03-25T10:38:30.425Z,35.60
2018-03-25T10:39:30.446Z,35.20
2018-03-25T10:40:30.472Z,36.40
2018-03-25T10:41:30.497Z,35.80
2018-03-25T10:42:30.514Z,37.50
2018-03-25T10:43:30.574Z,36.90
2018-03-25T10:44:30.569Z,35.90
2018-03-25T10:45:30.587Z,35.80
2018-03-25T10:46:30.621Z,35.40
2018-03-25T10:47:30.646Z,35.30
2018-03-25T10:48:30.665Z,35.40
2018-03-25T10:49:30.730Z,35.30
2018-03-25T10:50:30.715Z,35.70
2018-03-25T10:51:30.743Z,35.20
2018-03-25T10:52:30.769Z,35.00
2018-03-25T10:53:30.798Z,36.30
2018-03-25T10:54:30.819Z,35.40
2018-03-25T10:55:30.843Z,36.20
2018-03-25T10:56:30.865Z,36.00
2018-03-25T10:57:30.918Z,35.40
2018-03-25T10:58:30.925Z,33.80
2018-03-25T10:59:30.942Z,34.70
2018-03-25T11:00:30.976Z,35.40
2018-03-25T11:01:31.006Z,34.90
2018-03-25T11:02:31.019Z,34.40
2018-03-25T11:03:31.054Z,35.70
2018-03-25T11:04:31.071Z,36.50
2018-03-25T11:05:31.104Z,35.40
2018-03-25T11:06:31.123Z,35.80
2018-03-25T11:07:31.150Z,35.20
2018-03-25T11:08:31.175Z,35.40
2018-03-25T11:09:31.207Z,35.10
2018-03-25T11:10:31.239Z,33.80
2018-03-25T11:11:31.254Z,35.00
2018-03-25T11:12:31.287Z,33.60
2018-03-25T11:13:31.330Z,34.00
2018-03-25T11:14:31.333Z,34.10
2018-03-25T11:15:31.365Z,34.70
2018-03-25T11:16:31.391Z,34.20
2018-03-25T11:17:31.411Z,33.00
2018-03-25T11:18:31.446Z,33.50
2018-03-25T11:19:31.471Z,33.80
2018-03-25T11:20:31.495Z,32.30
2018-03-25T11:21:31.518Z,32.00
2018-03-25T11:22:31.556Z,33.00
2018-03-25T11:23:31.579Z,33.20
2018-03-25T11:24:31.609Z,31.40
2018-03-25T11:25:31.630Z,32.20
2018-03-25T11:26:31.655Z,32.90
2018-03-25T11:27:31.691Z,32.50
2018-03-25T11:28:31.711Z,31.70
2018-03-25T11:29:31.743Z,31.20
2018-03-25T11:30:31.773Z,29.40
2018-03-25T11:31:31.796Z,30.20
2018-03-25T11:32:31.832Z,31.10
2018-03-25T11:33:31.856Z,30.30
2018-03-25T11:34:31.887Z,29.30
2018-03-25T11:35:31.918Z,28.80
2018-03-25T11:36:31.938Z,28.20
2018-03-25T11:37:31.971Z,29.50
2018-03-25T11:38:32.019Z,29.20
2018-03-25T11:39:32.030Z,28.30
2018-03-25T11:40:32.060Z,27.80
2018-03-25T11:41:32.085Z,28.10
2018-03-25T11:42:32.123Z,28.20
2018-03-25T11:43:32.152Z,27.20
2018-03-25T11:44:32.184Z,28.60
2018-03-25T11:45:32.214Z,29.50
2018-03-25T11:46:32.237Z,29.10
2018-03-25T11:47:32.287Z,30.20
2018-03-25T11:48:32.343Z,28.20
2018-03-25T11:49:32.327Z,29.40
2018-03-25T11:50:32.367Z,28.10
2018-03-25T11:51:32.389Z,28.00
2018-03-25T11:52:32.424Z,27.00
2018-03-25T11:53:32.456Z,26.40
2018-03-25T11:54:32.487Z,24.90
2018-03-25T11:55:32.519Z,25.80
2018-03-25T11:56:32.552Z,25.60
2018-03-25T11:57:32.581Z,26.90
2018-03-25T11:58:32.611Z,26.00
2018-03-25T11:59:32.650Z,25.30
2018-03-25T12:00:32.669Z,24.10
2018-03-25T12:01:32.706Z,22.80
2018-03-25T12:02:32.735Z,23.70
2018-03-25T12:03:32.764Z,23.70
2018-03-25T12:04:32.803Z,23.90
2018-03-25T12:05:32.829Z,24.80
2018-03-25T12:06:32.864Z,25.70
2018-03-25T12:07:32.898Z,25.50
2018-03-25T12:08:32.920Z,24.00
2018-03-25T12:09:32.960Z,23.10
2018-03-25T12:10:32.988Z,24.80
2018-03-25T12:11:33.018Z,24.50
2018-03-25T12:12:33.054Z,26.00
2018-03-25T12:13:33.079Z,25.10
2018-03-25T12:14:33.120Z,27.00
2018-03-25T12:15:33.149Z,25.50
2018-03-25T12:16:33.257Z,26.70
2018-03-25T12:17:33.215Z,25.80
2018-03-25T12:18:33.240Z,27.00
2018-03-25T12:19:33.285Z,26.40
2018-03-25T12:20:33.299Z,26.90
2018-03-25T12:21:33.333Z,25.30
2018-03-25T12:22:33.372Z,25.40
2018-03-25T12:23:33.397Z,25.60
2018-03-25T12:24:33.436Z,26.00
2018-03-25T12:25:33.464Z,26.40
2018-03-25T12:26:33.494Z,26.30
2018-03-25T12:27:33.528Z,27.50
2018-03-25T12:28:33.557Z,27.10
2018-03-25T12:29:33.588Z,26.20
2018-03-25T12:30:33.622Z,24.70
2018-03-25T12:31:33.648Z,25.20
2018-03-25T12:32:33.682Z,25.70
2018-03-25T12:33:33.712Z,24.60
2018-03-25T12:34:33.741Z,24.40
2018-03-25T12:35:33.772Z,25.30
2018-03-25T12:36:33.807Z,24.60
2018-03-25T12:37:33.831Z,24.80
2018-03-25T12:38:33.863Z,25.20
2018-03-25T12:39:33.895Z,25.00
2018-03-25T12:40:33.916Z,24.30
2018-03-25T12:41:33.948Z,27.50
2018-03-25T12:42:33.976Z,25.80
2018-03-25T12:43:34.013Z,27.10
2018-03-25T12:44:34.033Z,25.60
2018-03-25T12:45:34.067Z,26.40
2018-03-25T12:46:34.092Z,26.80
2018-03-25T12:47:34.118Z,26.20
2018-03-25T12:48:34.149Z,26.70
2018-03-25T12:49:34.178Z,26.40
2018-03-25T12:50:34.206Z,26.90
2018-03-25T12:51:34.243Z,25.90
2018-03-25T12:52:34.256Z,26.60